createdAt,value
2023-01-26T00:02:28.116Z,102189.91
2023-01-26T00:04:55.747Z,102188.91
2023-01-26T00:07:23.367Z,102188.47
2023-01-26T00:09:51.085Z,102186.34
2023-01-26T00:12:18.707Z,102189.75
2023-01-26T00:14:52.784Z,102195.91
2023-01-26T00:17:26.322Z,102191.53
2023-01-26T00:19:58.608Z,102186.22
2023-01-26T00:22:27.998Z,102185.41
2023-01-26T00:24:56.422Z,102180.16
2023-01-26T00:27:26.614Z,102188.09
2023-01-26T00:29:57.379Z,102194.16
2023-01-26T00:32:27.184Z,102191.63
2023-01-26T00:34:55.059Z,102189.88
2023-01-26T00:37:22.638Z,102182.06
2023-01-26T00:39:51.679Z,102183.94
2023-01-26T00:42:20.868Z,102198.94
2023-01-26T00:44:48.629Z,102194.53
2023-01-26T00:47:16.620Z,102200.69
2023-01-26T00:49:47.182Z,102195.34
2023-01-26T00:52:15.319Z,102197.84
2023-01-26T00:54:47.676Z,102197.78
2023-01-26T00:57:15.864Z,102187.41
2023-01-26T00:59:43.658Z,102186.25
2023-01-26T01:02:11.458Z,102181.03
2023-01-26T01:04:40.928Z,102188.72
2023-01-26T01:07:08.842Z,102183.72
2023-01-26T01:09:37.011Z,102184.69
2023-01-26T01:12:05.029Z,102177.59
2023-01-26T01:14:32.889Z,102190.41
2023-01-26T01:17:00.531Z,102190.34
2023-01-26T01:19:31.331Z,102187.94
2023-01-26T01:21:59.262Z,102179.91
2023-01-26T01:24:29.600Z,102184.34
2023-01-26T01:26:57.327Z,102181.75
2023-01-26T01:29:25.104Z,102175.03
2023-01-26T01:31:52.945Z,102178.25
2023-01-26T01:34:20.712Z,102176.25
2023-01-26T01:36:50.699Z,102177.00
2023-01-26T01:39:20.842Z,102176.22
2023-01-26T01:41:48.463Z,102169.16
2023-01-26T01:44:21.505Z,102175.97
2023-01-26T01:46:54.209Z,102171.75
2023-01-26T01:49:27.376Z,102173.38
2023-01-26T01:52:06.114Z,102174.34
2023-01-26T01:54:56.977Z,102166.63
2023-01-26T01:57:29.464Z,102158.63
2023-01-26T02:00:12.468Z,102160.59
2023-01-26T02:03:06.015Z,102168.31
2023-01-26T02:05:39.329Z,102155.09
2023-01-26T02:08:10.073Z,102164.16
2023-01-26T02:10:38.233Z,102166.78
2023-01-26T02:13:09.609Z,102167.94
2023-01-26T02:15:38.418Z,102174.78
2023-01-26T02:18:06.219Z,102171.59
2023-01-26T02:20:58.555Z,102172.78
2023-01-26T02:23:55.585Z,102162.75
2023-01-26T02:26:28.484Z,102173.25
2023-01-26T02:28:56.899Z,102166.44
2023-01-26T02:31:26.974Z,102171.16
2023-01-26T02:33:56.599Z,102166.06
2023-01-26T02:36:27.569Z,102163.69
2023-01-26T02:39:25.345Z,102180.50
2023-01-26T02:42:22.265Z,102173.34
2023-01-26T02:44:50.453Z,102168.41
2023-01-26T02:47:20.260Z,102165.78
2023-01-26T02:49:50.830Z,102169.16
2023-01-26T02:52:23.502Z,102163.84
2023-01-26T02:55:19.801Z,102163.19
2023-01-26T02:57:47.740Z,102161.94
2023-01-26T03:00:18.784Z,102159.22
2023-01-26T03:02:48.296Z,102165.94
2023-01-26T03:05:15.977Z,102164.38
2023-01-26T03:07:46.556Z,102164.75
2023-01-26T03:10:16.725Z,102160.91
2023-01-26T03:12:45.682Z,102158.06
2023-01-26T03:15:33.163Z,102162.53
2023-01-26T03:18:23.705Z,102154.91
2023-01-26T03:21:09.936Z,102159.22
2023-01-26T03:23:57.560Z,102152.81
2023-01-26T03:26:45.665Z,102159.94
2023-01-26T03:29:13.859Z,102146.31
2023-01-26T03:31:43.388Z,102154.38
2023-01-26T03:34:14.071Z,102141.66
2023-01-26T03:36:45.678Z,102141.84
2023-01-26T03:39:34.393Z,102139.59
2023-01-26T03:42:21.581Z,102143.47
2023-01-26T03:45:07.797Z,102149.75
2023-01-26T03:48:09.814Z,102145.63
2023-01-26T03:50:56.021Z,102152.53
2023-01-26T03:53:43.323Z,102146.53
2023-01-26T03:56:18.395Z,102152.53
2023-01-26T03:59:08.053Z,102153.94
2023-01-26T04:02:05.472Z,102150.78
2023-01-26T04:04:52.919Z,102148.78
2023-01-26T04:07:42.993Z,102146.19
2023-01-26T04:10:11.393Z,102144.84
2023-01-26T04:12:39.189Z,102136.78
2023-01-26T04:15:33.095Z,102153.66
2023-01-26T04:18:25.880Z,102154.47
2023-01-26T04:21:13.621Z,102147.38
2023-01-26T04:23:43.621Z,102148.75
2023-01-26T04:26:11.632Z,102155.84
2023-01-26T04:28:40.137Z,102159.44
2023-01-26T04:31:08.079Z,102154.13
2023-01-26T04:33:40.470Z,102150.88
2023-01-26T04:36:10.111Z,102159.38
2023-01-26T04:38:41.623Z,102153.28
2023-01-26T04:41:09.685Z,102156.53
2023-01-26T04:43:45.535Z,102161.34
2023-01-26T04:46:14.128Z,102156.31
2023-01-26T04:48:42.511Z,102147.56
2023-01-26T04:51:13.987Z,102154.38
2023-01-26T04:53:44.875Z,102152.44
2023-01-26T04:56:22.597Z,102158.47
2023-01-26T04:58:52.800Z,102150.88
2023-01-26T05:01:21.734Z,102154.09
2023-01-26T12:04:21.994Z,101933.13
2023-01-26T12:07:00.190Z,101926.19
2023-01-26T12:09:47.898Z,101932.28
2023-01-26T12:12:38.274Z,101940.13
2023-01-26T12:15:16.008Z,101930.50
2023-01-26T12:17:58.953Z,101932.28
2023-01-26T12:20:45.812Z,101940.06
2023-01-26T12:23:19.552Z,101939.25
2023-01-26T12:25:53.104Z,101933.19
2023-01-26T12:28:42.127Z,101932.34
2023-01-26T12:31:12.961Z,101929.72
2023-01-26T12:33:41.186Z,101934.06
2023-01-26T12:36:45.702Z,101928.00
2023-01-26T12:39:20.691Z,101933.19
2023-01-26T12:41:59.043Z,101933.13
2023-01-26T12:44:35.438Z,101931.41
2023-01-26T12:47:13.797Z,101925.31
2023-01-26T12:50:02.416Z,101916.66
2023-01-26T12:52:43.011Z,101915.81
2023-01-26T12:55:20.099Z,101918.44
2023-01-26T12:58:21.416Z,101911.47
2023-01-26T13:01:41.644Z,101910.63
2023-01-26T13:04:15.851Z,101900.19
2023-01-26T13:07:02.889Z,101901.94
2023-01-26T13:09:31.015Z,101902.78
2023-01-26T13:12:00.418Z,101900.16
2023-01-26T13:14:37.490Z,101905.41
2023-01-26T13:17:17.515Z,101894.94
2023-01-26T13:19:45.149Z,101895.84
2023-01-26T13:22:18.885Z,101894.97
2023-01-26T13:24:49.195Z,101898.44
2023-01-26T13:27:43.835Z,101901.03
2023-01-26T13:30:23.561Z,101899.31
2023-01-26T13:32:52.586Z,101894.94
2023-01-26T13:35:25.782Z,101890.59
2023-01-26T13:37:59.412Z,101900.16
2023-01-26T13:40:36.498Z,101892.31
2023-01-26T13:43:24.600Z,101896.66
2023-01-26T13:46:17.786Z,101900.16
2023-01-26T13:48:53.763Z,101896.69
2023-01-26T13:51:35.948Z,101896.66
2023-01-26T13:58:33.951Z,101888.00
2023-01-26T14:01:07.361Z,101890.59
2023-01-26T14:03:34.956Z,101882.75
2023-01-26T14:06:11.584Z,101884.50
2023-01-26T14:08:39.739Z,101879.28
2023-01-26T14:11:21.467Z,101887.09
2023-01-26T14:13:57.521Z,101878.38
2023-01-26T14:16:31.467Z,101882.75
2023-01-26T14:19:09.633Z,101886.19
2023-01-26T14:21:52.075Z,101880.13
2023-01-26T14:24:48.397Z,101889.63
2023-01-26T14:27:21.750Z,101881.81
2023-01-26T14:29:50.446Z,101884.38
2023-01-26T14:32:18.012Z,101880.03
2023-01-26T14:34:54.115Z,101880.03
2023-01-26T14:37:22.994Z,101881.75
2023-01-26T14:40:09.716Z,101884.34
2023-01-26T14:45:33.273Z,101886.09
2023-01-26T14:48:07.891Z,101888.69
2023-01-26T14:50:37.729Z,101889.53
2023-01-26T14:53:13.275Z,101876.50
2023-01-26T14:55:44.257Z,101872.16
2023-01-26T14:58:21.441Z,101875.66
2023-01-26T15:00:50.285Z,101876.50
2023-01-26T15:03:37.186Z,101885.19
2023-01-26T15:06:17.948Z,101878.22
2023-01-26T15:09:04.526Z,101878.22
2023-01-26T15:11:58.851Z,101879.09
2023-01-26T15:14:35.689Z,101874.72
2023-01-26T15:17:04.260Z,101874.69
2023-01-26T15:19:39.712Z,101872.94
2023-01-26T15:22:22.184Z,101870.28
2023-01-26T15:25:29.045Z,101869.38
2023-01-26T15:27:59.276Z,101868.50
2023-01-26T15:30:33.409Z,101865.06
2023-01-26T15:33:02.483Z,101868.47
2023-01-26T15:35:34.997Z,101866.75
2023-01-26T15:38:11.672Z,101859.84
2023-01-26T15:40:39.935Z,101869.34
2023-01-26T15:43:15.147Z,101877.97
2023-01-26T15:45:51.554Z,101885.78
2023-01-26T15:48:19.634Z,101886.63
2023-01-26T15:50:48.689Z,101886.59
2023-01-26T15:53:20.142Z,101884.00
2023-01-26T15:55:52.885Z,101891.00
2023-01-26T15:58:20.528Z,101892.72
2023-01-26T16:00:48.851Z,101882.31
2023-01-26T16:03:19.241Z,101884.06
2023-01-26T16:05:50.479Z,101897.94
2023-01-26T16:08:18.962Z,101898.78
2023-01-26T16:10:47.547Z,101895.34
2023-01-26T16:13:18.155Z,101881.41
2023-01-26T16:15:50.802Z,101885.75
2023-01-26T16:18:18.809Z,101888.31
2023-01-26T16:20:48.065Z,101890.03
2023-01-26T16:23:24.809Z,101894.41
2023-01-26T16:25:52.649Z,101884.88
2023-01-26T16:28:20.951Z,101882.28
2023-01-26T16:30:50.933Z,101883.16
2023-01-26T16:33:21.620Z,101878.75
2023-01-26T16:35:49.245Z,101883.97
2023-01-26T16:38:17.163Z,101888.28
2023-01-26T16:40:47.347Z,101892.59
2023-01-26T16:43:21.447Z,101892.59
2023-01-26T16:45:52.227Z,101894.31
2023-01-26T16:48:20.486Z,101895.19
2023-01-26T16:50:52.258Z,101896.00
2023-01-26T16:53:30.586Z,101895.13
2023-01-26T16:55:58.117Z,101886.38
2023-01-26T16:58:30.566Z,101890.75
2023-01-26T17:00:58.282Z,101898.38
2023-01-26T17:03:25.883Z,101901.78
2023-01-26T17:05:56.075Z,101912.13
2023-01-26T17:08:23.664Z,101909.47
2023-01-26T17:11:01.601Z,101906.09
2023-01-26T17:13:31.433Z,101891.41
2023-01-26T17:16:00.110Z,101888.84
2023-01-26T17:18:27.656Z,101878.44
2023-01-26T17:21:02.169Z,101895.78
2023-01-26T17:23:31.492Z,101887.94
2023-01-26T17:26:00.646Z,101877.56
2023-01-26T17:28:28.130Z,101874.97
2023-01-26T17:30:59.367Z,101886.25
2023-01-26T17:33:29.218Z,101888.84
2023-01-26T17:36:04.151Z,101893.13
2023-01-26T17:38:34.048Z,101893.13
2023-01-26T17:41:02.085Z,101890.47
2023-01-26T17:43:30.269Z,101894.84
2023-01-26T17:46:10.226Z,101890.47
2023-01-26T17:48:38.689Z,101885.28
2023-01-26T17:51:08.382Z,101879.19
2023-01-26T17:53:40.872Z,101869.66
2023-01-26T17:56:10.987Z,101877.41
2023-01-26T17:58:39.238Z,101881.75
2023-01-26T18:01:08.573Z,101879.16
2023-01-26T18:03:41.032Z,101875.59
2023-01-26T18:06:09.784Z,101884.22
2023-01-26T18:08:38.544Z,101882.41
2023-01-26T18:11:09.868Z,101884.91
2023-01-26T18:13:39.430Z,101885.75
2023-01-26T18:16:08.212Z,101882.28
2023-01-26T18:18:36.325Z,101873.66
2023-01-26T18:21:14.339Z,101880.69
2023-01-26T18:23:45.022Z,101878.94
2023-01-26T18:26:13.832Z,101882.38
2023-01-26T18:28:42.208Z,101878.00
2023-01-26T18:31:30.906Z,101878.88
2023-01-26T18:34:00.201Z,101881.41
2023-01-26T18:36:29.158Z,101869.25
2023-01-26T18:38:59.828Z,101875.34
2023-01-26T18:41:31.236Z,101871.88
2023-01-26T18:44:00.889Z,101868.34
2023-01-26T18:46:31.026Z,101872.66
2023-01-26T18:49:03.120Z,101865.72
2023-01-26T18:51:35.596Z,101873.59
2023-01-26T18:54:04.373Z,101868.41
2023-01-26T18:56:34.070Z,101864.06
2023-01-26T18:59:01.567Z,101866.59
2023-01-26T19:01:29.445Z,101874.31
2023-01-26T19:03:58.692Z,101856.16
2023-01-26T19:06:26.555Z,101857.94
2023-01-26T19:09:01.078Z,101859.59
2023-01-26T19:11:31.456Z,101867.38
2023-01-26T19:14:00.021Z,101856.84
2023-01-26T19:16:28.953Z,101854.25
2023-01-26T19:18:56.744Z,101846.47
2023-01-26T19:21:25.917Z,101853.38
2023-01-26T19:23:56.190Z,101853.44
2023-01-26T19:26:26.326Z,101853.41
2023-01-26T19:28:54.679Z,101850.72
2023-01-26T19:31:23.325Z,101858.50
2023-01-26T19:33:56.549Z,101855.88
2023-01-26T19:36:25.137Z,101859.25
2023-01-26T19:38:52.890Z,101856.66
2023-01-26T19:41:22.060Z,101860.84
2023-01-26T19:43:50.545Z,101861.84
2023-01-26T19:46:18.629Z,101854.06
2023-01-26T19:48:46.834Z,101842.75
2023-01-26T19:51:16.991Z,101845.38
2023-01-26T19:53:47.459Z,101839.31
2023-01-26T19:56:29.779Z,101833.31
2023-01-26T19:59:00.035Z,101840.25
2023-01-26T20:01:29.550Z,101835.84
2023-01-26T20:04:00.796Z,101827.22
2023-01-26T20:06:32.229Z,101826.34
2023-01-26T20:09:00.848Z,101822.94
2023-01-26T20:11:29.808Z,101829.03
2023-01-26T20:14:00.029Z,101823.81
2023-01-26T20:16:29.137Z,101817.69
2023-01-26T20:18:57.833Z,101814.94
2023-01-26T20:21:25.559Z,101814.94
2023-01-26T20:23:55.159Z,101818.41
2023-01-26T20:26:24.868Z,101817.50
2023-01-26T20:28:56.873Z,101812.34
2023-01-26T20:31:26.316Z,101814.06
2023-01-26T20:33:55.394Z,101809.72
2023-01-26T20:36:26.342Z,101806.19
2023-01-26T20:38:54.298Z,101809.63
2023-01-26T20:41:25.950Z,101813.03
2023-01-26T20:44:00.816Z,101809.63
2023-01-26T20:46:36.860Z,101808.84
2023-01-26T20:49:08.802Z,101813.00
2023-01-26T20:51:38.319Z,101810.25
2023-01-26T20:54:06.755Z,101816.22
2023-01-26T20:56:35.612Z,101814.50
2023-01-26T20:59:04.488Z,101807.53
2023-01-26T21:01:36.610Z,101791.91
2023-01-26T21:04:05.709Z,101795.50
2023-01-26T21:06:33.970Z,101804.97
2023-01-26T21:09:02.166Z,101794.63
2023-01-26T21:11:31.490Z,101793.75
2023-01-26T21:14:01.790Z,101798.06
2023-01-26T21:16:31.547Z,101801.41
2023-01-26T21:18:59.329Z,101797.88
2023-01-26T21:21:27.141Z,101792.66
2023-01-26T21:23:54.714Z,101794.50
2023-01-26T21:26:24.524Z,101790.22
2023-01-26T21:28:54.177Z,101781.53
2023-01-26T21:31:25.100Z,101784.09
2023-01-26T21:33:53.559Z,101786.53
2023-01-26T21:36:23.786Z,101770.88
2023-01-26T21:38:52.707Z,101775.22
2023-01-26T21:41:44.396Z,101780.50
2023-01-26T21:44:14.663Z,101762.16
2023-01-26T21:46:44.991Z,101763.78
2023-01-26T21:49:13.652Z,101764.63
2023-01-26T21:52:02.627Z,101772.25
2023-01-26T21:54:30.669Z,101760.22
2023-01-26T21:56:59.206Z,101754.97
2023-01-26T21:59:26.860Z,101759.38
2023-01-26T22:01:56.676Z,101762.91
2023-01-26T22:04:24.130Z,101753.31
2023-01-26T22:06:52.398Z,101752.44
2023-01-26T22:09:21.454Z,101746.31
2023-01-26T22:16:09.191Z,101747.94
2023-01-26T22:18:37.037Z,101733.16
2023-01-26T22:21:04.948Z,101734.59
2023-01-26T22:23:37.742Z,101730.16
2023-01-26T22:26:23.893Z,101737.91
2023-01-26T22:28:53.621Z,101731.84
2023-01-26T22:31:23.605Z,101751.78
2023-01-26T22:33:51.494Z,101743.84
2023-01-26T22:36:19.766Z,101745.50
2023-01-26T22:38:47.870Z,101744.47
2023-01-26T22:41:21.245Z,101745.34
2023-01-26T22:43:54.340Z,101744.34
2023-01-26T22:46:23.601Z,101738.31
2023-01-26T22:48:51.864Z,101742.59
2023-01-26T22:51:22.271Z,101752.25
2023-01-26T22:53:51.726Z,101756.47
2023-01-26T22:56:19.820Z,101753.97
2023-01-26T22:59:00.423Z,101752.88
2023-01-26T23:01:30.552Z,101756.34
2023-01-26T23:03:58.881Z,101752.03
2023-01-26T23:06:27.129Z,101747.66
2023-01-26T23:08:55.517Z,101738.00
2023-01-26T23:11:26.289Z,101729.25
2023-01-26T23:13:55.796Z,101733.63
2023-01-26T23:16:25.097Z,101724.06
2023-01-26T23:18:54.997Z,101731.91
2023-01-26T23:21:23.481Z,101725.78
2023-01-26T23:23:51.740Z,101719.63
2023-01-26T23:26:20.530Z,101718.69
2023-01-26T23:28:48.023Z,101720.56
2023-01-26T23:31:16.956Z,101719.63
2023-01-26T23:33:44.660Z,101716.88
2023-01-26T23:36:13.949Z,101722.44
2023-01-26T23:38:41.997Z,101719.69
2023-01-26T23:41:09.595Z,101716.00
2023-01-26T23:43:37.154Z,101720.16
2023-01-26T23:46:06.781Z,101718.72
2023-01-26T23:48:34.852Z,101719.28
2023-01-26T23:51:05.233Z,101720.88
2023-01-26T23:53:33.253Z,101725.84
2023-01-26T23:56:05.224Z,101713.84
2023-01-26T23:58:33.027Z,101722.56
